Buoy 41997

sailwx.info

Track history (hours):
 
Tides and Currents Weather Stations Pressure Air Temp Water Temp Dewpoint Dewpoint Depression Visibility Wind Speed Wind Dir Waves Ship Positions

Drifting buoy 41997

Last reported at 2015-Apr-27 04:00 UTC. Time now 2015-Aug-31 19:51 UTC.
Position N 25°57' W 048°07'.
Warning: this ship's position is months out of date.

Water temperature 23.2 ° C

Date/timePositionNaut miles runAvg speedWind from/ knotsBaromVisibWave heightAir tempDewpointWater temp
2015-Apr-27 04:00N 25°57' W 048°07'4 0.2 23.2
2015-Apr-26 09:15N 25°58' W 048°11'3 0.2 23.1
2015-Apr-25 15:45N 25°58' W 048°14'0 0.0 23.3
2015-Apr-25 09:00N 25°59' W 048°14'4 4.0 23.4
2015-Apr-25 08:00N 26°01' W 048°17'0 0.0 23.4
2015-Apr-25 06:00N 26°01' W 048°17'1 0.1 23.4
2015-Apr-24 19:45N 26°02' W 048°17'2 0.8 23.5
2015-Apr-24 17:45N 26°02' W 048°19'0 0.0 23.4
2015-Apr-24 16:00N 26°02' W 048°19'1 0.1 23.4
2015-Apr-24 09:15N 26°03' W 048°19'3 0.4 23.2
2015-Apr-24 00:45N 26°06' W 048°18'1 1.3 23.3
2015-Apr-24 00:00N 26°07' W 048°18'1 1.9 23.3
2015-Apr-23 23:15N 26°09' W 048°19'0 0.0 23.3
2015-Apr-23 23:00N 26°09' W 048°19'1 0.3 23.3
2015-Apr-23 20:45N 26°09' W 048°20'0 0.0 23.4
2015-Apr-23 20:15N 26°09' W 048°20'0 0.1 23.4
2015-Apr-23 17:45N 26°09' W 048°20'0 0.0 23.4
2015-Apr-23 16:15N 26°09' W 048°20'2 0.3 23.4
2015-Apr-23 08:45N 26°11' W 048°19'3 0.2 23.1
2015-Apr-22 21:00N 26°14' W 048°18'0 0.0 23.7
2015-Apr-22 20:45N 26°14' W 048°18'3 0.3 23.7
2015-Apr-22 09:30N 26°15' W 048°15'0 1.0 23.0
2015-Apr-22 09:15N 26°15' W 048°14'2 1.3 23.0
2015-Apr-22 08:00N 26°14' W 048°13'0 0.0 23.0
2015-Apr-22 07:45N 26°14' W 048°13'3 1.1 23.1
2015-Apr-22 05:00N 26°14' W 048°09'0 0.0 23.2
2015-Apr-22 00:45N 26°14' W 048°09'1 0.2 23.2
2015-Apr-21 21:00N 26°14' W 048°09'0 0.0 23.5
2015-Apr-21 20:45N 26°14' W 048°09'1 0.7 23.5
2015-Apr-21 19:30N 26°14' W 048°10'1 0.5 23.5
2015-Apr-21 16:30N 26°13' W 048°11'2 0.2 23.5
2015-Apr-21 08:15N 26°13' W 048°13'0 0.0 23.1
2015-Apr-21 08:00N 26°13' W 048°13'0 0.0 23.1
2015-Apr-21 05:15N 26°13' W 048°13'1 0.3 23.1
2015-Apr-21 01:00N 26°13' W 048°14'6 0.7 23.1
2015-Apr-20 16:45N 26°15' W 048°20'2 0.2 23.1
2015-Apr-20 07:45N 26°17' W 048°21'5 0.4 23.0
2015-Apr-19 20:00N 26°20' W 048°24'0 0.0 23.0
2015-Apr-19 19:45N 26°20' W 048°24'0 0.0 23.0
2015-Apr-19 17:00N 26°20' W 048°24'0 0.0 23.1
2015-Apr-19 16:45N 26°20' W 048°24'6 0.3 23.1
2015-Apr-19 00:00N 26°25' W 048°21'4 0.9 23.0
2015-Apr-18 20:00N 26°28' W 048°19'0 0.0 23.0
2015-Apr-18 18:45N 26°28' W 048°19'0 0.0 23.1
2015-Apr-18 12:45N 26°28' W 048°19'2 0.5 22.8
2015-Apr-18 09:15N 26°29' W 048°17'3 0.6 22.8
2015-Apr-18 04:00N 26°32' W 048°15'3 0.2 22.9
2015-Apr-17 13:15N 26°34' W 048°14'0 0.0 23.4
2015-Apr-17 13:00N 26°34' W 048°14'1 0.2 23.3
2015-Apr-17 09:00N 26°34' W 048°13'0 0.0 23.2
2015-Apr-17 08:45N 26°34' W 048°13'5 6.1 23.2
2015-Apr-17 08:00N 26°39' W 048°11'0 0.0 23.2
2015-Apr-17 07:15N 26°39' W 048°11'0 0.0 23.3
2015-Apr-17 06:00N 26°39' W 048°11'   23.3
Track history (hours):
 
Tides and Currents Weather Stations Pressure Air Temp Water Temp Dewpoint Dewpoint Depression Visibility Wind Speed Wind Dir Waves Ship Positions

Drifting buoy 41997

Last reported at 2015-Apr-27 04:00 UTC. Time now 2015-Aug-31 19:51 UTC.
Position N 25°57' W 048°07'.
Warning: this ship's position is months out of date.

Water temperature 23.2 ° C

Date/timePositionNaut miles runAvg speedWind from/ knotsBaromVisibWave heightAir tempDewpointWater temp
2015-Apr-27 04:00N 25°57' W 048°07'4 0.2 23.2
2015-Apr-26 09:15N 25°58' W 048°11'3 0.2 23.1
2015-Apr-25 15:45N 25°58' W 048°14'0 0.0 23.3
2015-Apr-25 09:00N 25°59' W 048°14'4 4.0 23.4
2015-Apr-25 08:00N 26°01' W 048°17'0 0.0 23.4
2015-Apr-25 06:00N 26°01' W 048°17'1 0.1 23.4
2015-Apr-24 19:45N 26°02' W 048°17'2 0.8 23.5
2015-Apr-24 17:45N 26°02' W 048°19'0 0.0 23.4
2015-Apr-24 16:00N 26°02' W 048°19'1 0.1 23.4
2015-Apr-24 09:15N 26°03' W 048°19'3 0.4 23.2
2015-Apr-24 00:45N 26°06' W 048°18'1 1.3 23.3
2015-Apr-24 00:00N 26°07' W 048°18'1 1.9 23.3
2015-Apr-23 23:15N 26°09' W 048°19'0 0.0 23.3
2015-Apr-23 23:00N 26°09' W 048°19'1 0.3 23.3
2015-Apr-23 20:45N 26°09' W 048°20'0 0.0 23.4
2015-Apr-23 20:15N 26°09' W 048°20'0 0.1 23.4
2015-Apr-23 17:45N 26°09' W 048°20'0 0.0 23.4
2015-Apr-23 16:15N 26°09' W 048°20'2 0.3 23.4
2015-Apr-23 08:45N 26°11' W 048°19'3 0.2 23.1
2015-Apr-22 21:00N 26°14' W 048°18'0 0.0 23.7
2015-Apr-22 20:45N 26°14' W 048°18'3 0.3 23.7
2015-Apr-22 09:30N 26°15' W 048°15'0 1.0 23.0
2015-Apr-22 09:15N 26°15' W 048°14'2 1.3 23.0
2015-Apr-22 08:00N 26°14' W 048°13'0 0.0 23.0
2015-Apr-22 07:45N 26°14' W 048°13'3 1.1 23.1
2015-Apr-22 05:00N 26°14' W 048°09'0 0.0 23.2
2015-Apr-22 00:45N 26°14' W 048°09'1 0.2 23.2
2015-Apr-21 21:00N 26°14' W 048°09'0 0.0 23.5
2015-Apr-21 20:45N 26°14' W 048°09'1 0.7 23.5
2015-Apr-21 19:30N 26°14' W 048°10'1 0.5 23.5
2015-Apr-21 16:30N 26°13' W 048°11'2 0.2 23.5
2015-Apr-21 08:15N 26°13' W 048°13'0 0.0 23.1
2015-Apr-21 08:00N 26°13' W 048°13'0 0.0 23.1
2015-Apr-21 05:15N 26°13' W 048°13'1 0.3 23.1
2015-Apr-21 01:00N 26°13' W 048°14'6 0.7 23.1
2015-Apr-20 16:45N 26°15' W 048°20'2 0.2 23.1
2015-Apr-20 07:45N 26°17' W 048°21'5 0.4 23.0
2015-Apr-19 20:00N 26°20' W 048°24'0 0.0 23.0
2015-Apr-19 19:45N 26°20' W 048°24'0 0.0 23.0
2015-Apr-19 17:00N 26°20' W 048°24'0 0.0 23.1
2015-Apr-19 16:45N 26°20' W 048°24'6 0.3 23.1
2015-Apr-19 00:00N 26°25' W 048°21'4 0.9 23.0
2015-Apr-18 20:00N 26°28' W 048°19'0 0.0 23.0
2015-Apr-18 18:45N 26°28' W 048°19'0 0.0 23.1
2015-Apr-18 12:45N 26°28' W 048°19'2 0.5 22.8
2015-Apr-18 09:15N 26°29' W 048°17'3 0.6 22.8
2015-Apr-18 04:00N 26°32' W 048°15'3 0.2 22.9
2015-Apr-17 13:15N 26°34' W 048°14'0 0.0 23.4
2015-Apr-17 13:00N 26°34' W 048°14'1 0.2 23.3
2015-Apr-17 09:00N 26°34' W 048°13'0 0.0 23.2
2015-Apr-17 08:45N 26°34' W 048°13'5 6.1 23.2
2015-Apr-17 08:00N 26°39' W 048°11'0 0.0 23.2
2015-Apr-17 07:15N 26°39' W 048°11'0 0.0 23.3
2015-Apr-17 06:00N 26°39' W 048°11'   23.3

Dump ship's entire track history